山形空港

2019/04/21

山形茸狩 山形空港他 2019/4/20 sat

RJSC 130400Z 04006KT 360V100 9999 FEW040 SCT070 14/M00 Q1021

陸自霞目駐屯地を後にして、一山越えて山形に戻ってきました。春は芽吹きの季節。今日も山に入って収穫。

20190413_rjsc_00zmo

施設はいつもこんな注意書きがあります。

20190413_rjsc_01zmo

逆光に浮かぶキノコ

20190413_rjsc_02zmo

監視カメラに見られてるぅぅ

20190413_rjsc_03zmo

日本で唯一の単独VOR 蔵王山田VOR(ZMO)

RJSC 130500Z VRB05KT 9999 FEW040 SCT070 14/M00 Q1021

20190413_rjsc_04zmo

近くに怪しい天文台

20190413_rjsc_05b18666

山陰からいきなりジェット音

20190413_rjsc_06zmo

見えるっかなー?

20190413_rjsc_07zmo

この位置がVORらしいですね

20190413_rjsc_08zmo

もっと山を昇ります。VORを見下ろせるのは、ここだけ?

20190413_rjsc_09zmo

山田の棚田。田植えが終った頃に見てみたいですね。

20190413_rjsc_10zmo

さらに上の山村広場からも見下ろせます。

RJSC 130600Z 36013KT 9999 FEW040 SCT070 14/02 Q1020

20190413_rjsc_11yte

東北中央自動車道山形上川ICから間もなく開通する南側を尻目に北上。

20190413_rjsc_12yte

山形VOR/DME(YTE)

山形空港の南方、さくらんぼ畑の中に鎮座してます。

20190413_rjsc_13rjsc

山形空港到着

20190413_rjsc_15b18666

CAL7510 RCTP-RJSC B-18666 B737-8AL

先ほど山田で見たB3は、ダイナさんでした。

20190413_rjsc_14vpcts

目を動かすと・・ VIPな千歳さん

20190413_rjsc_16info

山形空港の情報盤は、こじんまりしてます。

20190413_rjsc_17vpcts

昔ながらの開放的な送迎デッキ

20190413_rjsc_18vpcts

VIPさん、お客さん到着

20190413_rjsc_19ja10fj

定期便のフジドさんがサークリングしてアプローチ

20190413_rjsc_20ja10fj

FDA603 RJCC-RJSC JA10FJ ERJ-175STD

20190413_rjsc_21b18666

熱心なお見送り さくらんぼおばさん?

20190413_rjsc_22b18666

CAL7511 RJSC-RCTP B-18666 B737-8AL

20190413_rjsc_23ja10fj

中華さんのお見送りにビックリ

20190413_rjsc_24b18666

VIPさんもエンジンスタート

20190413_rjsc_25b18666

RJSC 130700Z 01012KT 9999 FEW040 SCT070 14/02 Q1020

20190413_rjsc_26vpcts

VP-CTS RJSC-RJTT G650

20190413_rjsc_27vpcts

20190413_rjsc_28b18666

台湾からのチャーターは好調とのことです。

20190413_rjsc_29vpcts

さすが、あっと言う間にエアボーン

20190413_rjsc_30vpcts

20190413_rjsc_31vpcts

青空に飛び込む上昇 富山にも来てくださいね。

20190413_rjsc_32ja10fj

子供達のお手振りに

20190413_rjsc_33ja10fj

20190413_rjsc_34ja10fj

FDA386 RJSC-RJNA JA10FJ ERJ-175STD

20190413_rjsc_35ja10fj

いぶし銀の銀ちゃん

20190413_rjsc_36rjsc

山形愛を感じるFDAのカウンター

20190413_rjsc_37rjsc

おいしい山形空港でした。

| | コメント (0)

その他のカテゴリー

BI Boading record aircraft Boading record ship FlightTracking lighthouse NAVAIDS RJNT LOG SKY MASSAGE US NAVY USMC うみ おか そら てつ アクシデント エアロック チーム室屋 三沢飛行場 上五島空港 下地島空港 下総飛行場 与那国空港 中標津空港 中部国際空港 久米島空港 五島福江空港 仙台空港 伊江島空港 但馬空港 佐賀空港 入間飛行場 八尾空港 八戸飛行場 出雲空港 函館空港 利尻空港 北九州空港 十勝飛行場 千歳飛行場 博物館 厚木飛行場 名古屋飛行場 喜界空港 嘉手納飛行場 場外 壱岐空港 大分空港 大湊飛行場 大阪国際空港 大館能代空港 天草空港 奄美空港 奥尻空港 宇部山口空港 宇都宮飛行場 宮古空港 宮崎空港 富山空港 小松島飛行場 小松飛行場 屋久島空港 山形空港 岐阜飛行場 岡山空港 岩国飛行場 帯広空港 広島空港 庄内空港 徳之島空港 徳島飛行場 成田国際空港 新潟空港 新田原飛行場 旭川空港 旭川飛行場 明野飛行場 普天間飛行場 木更津飛行場 札幌飛行場 東京国際空港 松山空港 松島飛行場 松本空港 横田飛行場 沖永良部空港 波照間空港 浜松飛行場 海上保安庁 海上自衛隊 海外 熊本空港 百里飛行場 相馬原飛行場 石垣空港 石見空港 礼文空港 神戸空港 福井空港 福岡空港 福島空港 秋田空港 種子島空港 空撮 立川飛行場 築城飛行場 美保飛行場 能登空港 舞鶴飛行場 航空自衛隊 芦屋飛行場 花巻空港 調布飛行場 警務消防 那覇空港 釧路空港 長崎空港 関西国際空港 陸上自衛隊 隠岐空港 霞ヶ浦飛行場 霞目飛行場 青森空港 静岡空港 静浜飛行場 飛行場跡 飛行船 鹿児島空港 鹿屋飛行場